sensor_id;sensor_type;location;lat;lon;timestamp;temperature;humidity
18335;DHT22;9293;49.524;10.964;2023-06-04T00:00:22;12.20;99.90
18335;DHT22;9293;49.524;10.964;2023-06-04T00:02:50;12.20;99.90
18335;DHT22;9293;49.524;10.964;2023-06-04T00:05:19;12.10;99.90
18335;DHT22;9293;49.524;10.964;2023-06-04T00:07:47;12.10;99.90
18335;DHT22;9293;49.524;10.964;2023-06-04T00:10:15;12.10;99.90
18335;DHT22;9293;49.524;10.964;2023-06-04T00:12:44;12.00;99.90
18335;DHT22;9293;49.524;10.964;2023-06-04T00:15:14;12.00;99.90
18335;DHT22;9293;49.524;10.964;2023-06-04T00:17:44;11.90;99.90
18335;DHT22;9293;49.524;10.964;2023-06-04T00:20:12;11.80;99.90
18335;DHT22;9293;49.524;10.964;2023-06-04T00:22:40;11.80;99.90
18335;DHT22;9293;49.524;10.964;2023-06-04T00:25:10;11.80;99.90
18335;DHT22;9293;49.524;10.964;2023-06-04T00:27:38;11.90;99.90
18335;DHT22;9293;49.524;10.964;2023-06-04T00:30:07;11.90;99.90
18335;DHT22;9293;49.524;10.964;2023-06-04T00:32:36;12.00;99.90
18335;DHT22;9293;49.524;10.964;2023-06-04T00:35:05;12.00;99.90
18335;DHT22;9293;49.524;10.964;2023-06-04T00:37:36;11.90;99.90
18335;DHT22;9293;49.524;10.964;2023-06-04T00:40:07;12.00;99.90
18335;DHT22;9293;49.524;10.964;2023-06-04T00:42:35;11.90;99.90
18335;DHT22;9293;49.524;10.964;2023-06-04T00:45:04;12.00;99.90
18335;DHT22;9293;49.524;10.964;2023-06-04T00:47:36;11.90;99.90
18335;DHT22;9293;49.524;10.964;2023-06-04T00:50:05;11.80;99.90
18335;DHT22;9293;49.524;10.964;2023-06-04T00:52:35;11.70;99.90
18335;DHT22;9293;49.524;10.964;2023-06-04T00:55:03;11.60;99.90
18335;DHT22;9293;49.524;10.964;2023-06-04T00:57:31;11.70;99.90
18335;DHT22;9293;49.524;10.964;2023-06-04T01:00:00;11.60;99.90
18335;DHT22;9293;49.524;10.964;2023-06-04T01:02:28;11.60;99.90
18335;DHT22;9293;49.524;10.964;2023-06-04T01:07:54;11.60;99.90
18335;DHT22;9293;49.524;10.964;2023-06-04T01:10:23;11.80;99.90
18335;DHT22;9293;49.524;10.964;2023-06-04T01:12:52;11.90;99.90
18335;DHT22;9293;49.524;10.964;2023-06-04T01:15:20;11.80;99.90
18335;DHT22;9293;49.524;10.964;2023-06-04T01:17:50;11.80;99.90
18335;DHT22;9293;49.524;10.964;2023-06-04T01:20:36;11.90;99.90
18335;DHT22;9293;49.524;10.964;2023-06-04T01:25:39;11.90;99.90
18335;DHT22;9293;49.524;10.964;2023-06-04T01:28:08;12.00;99.90
18335;DHT22;9293;49.524;10.964;2023-06-04T01:30:41;12.00;99.90
18335;DHT22;9293;49.524;10.964;2023-06-04T01:33:18;12.00;99.90
18335;DHT22;9293;49.524;10.964;2023-06-04T01:35:47;11.90;99.90
18335;DHT22;9293;49.524;10.964;2023-06-04T01:38:16;12.00;99.90
18335;DHT22;9293;49.524;10.964;2023-06-04T01:40:44;12.10;99.90
18335;DHT22;9293;49.524;10.964;2023-06-04T01:43:13;12.10;99.90
18335;DHT22;9293;49.524;10.964;2023-06-04T01:45:41;12.00;99.90
18335;DHT22;9293;49.524;10.964;2023-06-04T01:48:10;11.90;99.90
18335;DHT22;9293;49.524;10.964;2023-06-04T01:50:38;11.80;99.90
18335;DHT22;9293;49.524;10.964;2023-06-04T01:53:06;11.70;99.90
18335;DHT22;9293;49.524;10.964;2023-06-04T01:55:34;11.60;99.90
18335;DHT22;9293;49.524;10.964;2023-06-04T01:58:03;11.50;99.90
18335;DHT22;9293;49.524;10.964;2023-06-04T02:00:31;11.40;99.90
18335;DHT22;9293;49.524;10.964;2023-06-04T02:03:00;11.40;99.90
18335;DHT22;9293;49.524;10.964;2023-06-04T02:05:28;11.40;99.90
18335;DHT22;9293;49.524;10.964;2023-06-04T02:07:56;11.50;99.90
18335;DHT22;9293;49.524;10.964;2023-06-04T02:10:25;11.50;99.90
18335;DHT22;9293;49.524;10.964;2023-06-04T02:13:01;11.60;99.90
18335;DHT22;9293;49.524;10.964;2023-06-04T02:15:34;11.70;99.90
18335;DHT22;9293;49.524;10.964;2023-06-04T02:18:18;11.70;99.90
18335;DHT22;9293;49.524;10.964;2023-06-04T02:20:49;11.70;99.90
18335;DHT22;9293;49.524;10.964;2023-06-04T02:23:19;11.70;99.90
18335;DHT22;9293;49.524;10.964;2023-06-04T02:25:47;11.50;99.90
18335;DHT22;9293;49.524;10.964;2023-06-04T02:28:17;11.60;99.90
18335;DHT22;9293;49.524;10.964;2023-06-04T02:30:45;11.60;99.90
18335;DHT22;9293;49.524;10.964;2023-06-04T02:33:14;11.60;99.90
18335;DHT22;9293;49.524;10.964;2023-06-04T02:35:43;11.50;99.90
18335;DHT22;9293;49.524;10.964;2023-06-04T02:38:11;11.60;99.90
18335;DHT22;9293;49.524;10.964;2023-06-04T02:40:41;11.60;99.90
18335;DHT22;9293;49.524;10.964;2023-06-04T02:43:10;11.60;99.90
18335;DHT22;9293;49.524;10.964;2023-06-04T02:45:39;11.60;99.90
18335;DHT22;9293;49.524;10.964;2023-06-04T02:48:07;11.50;99.90
18335;DHT22;9293;49.524;10.964;2023-06-04T02:50:36;11.40;99.90
18335;DHT22;9293;49.524;10.964;2023-06-04T02:53:04;11.40;99.90
18335;DHT22;9293;49.524;10.964;2023-06-04T02:55:34;11.30;99.90
18335;DHT22;9293;49.524;10.964;2023-06-04T02:58:04;11.30;99.90
18335;DHT22;9293;49.524;10.964;2023-06-04T03:00:32;11.20;99.90
18335;DHT22;9293;49.524;10.964;2023-06-04T03:03:01;11.20;99.90
18335;DHT22;9293;49.524;10.964;2023-06-04T03:05:29;11.20;99.90
18335;DHT22;9293;49.524;10.964;2023-06-04T03:08:01;11.20;99.90
18335;DHT22;9293;49.524;10.964;2023-06-04T03:10:31;11.20;99.90
18335;DHT22;9293;49.524;10.964;2023-06-04T03:12:59;11.20;99.90
18335;DHT22;9293;49.524;10.964;2023-06-04T03:15:28;11.20;99.90
18335;DHT22;9293;49.524;10.964;2023-06-04T03:17:56;11.30;99.90
18335;DHT22;9293;49.524;10.964;2023-06-04T03:20:25;11.30;99.90
18335;DHT22;9293;49.524;10.964;2023-06-04T03:22:53;11.20;99.90
18335;DHT22;9293;49.524;10.964;2023-06-04T03:25:25;11.10;99.90
18335;DHT22;9293;49.524;10.964;2023-06-04T03:27:57;11.00;99.90
18335;DHT22;9293;49.524;10.964;2023-06-04T03:30:25;11.00;99.90
18335;DHT22;9293;49.524;10.964;2023-06-04T03:32:57;10.90;99.90
18335;DHT22;9293;49.524;10.964;2023-06-04T03:35:26;11.00;99.90
18335;DHT22;9293;49.524;10.964;2023-06-04T03:37:54;10.90;99.90
18335;DHT22;9293;49.524;10.964;2023-06-04T03:40:22;10.90;99.90
18335;DHT22;9293;49.524;10.964;2023-06-04T03:42:51;10.90;99.90
18335;DHT22;9293;49.524;10.964;2023-06-04T03:45:22;10.90;99.90
18335;DHT22;9293;49.524;10.964;2023-06-04T03:47:50;10.90;99.90
18335;DHT22;9293;49.524;10.964;2023-06-04T03:50:18;10.90;99.90
18335;DHT22;9293;49.524;10.964;2023-06-04T03:52:51;10.90;99.90
18335;DHT22;9293;49.524;10.964;2023-06-04T03:55:19;10.90;99.90
18335;DHT22;9293;49.524;10.964;2023-06-04T03:57:49;11.00;99.90
18335;DHT22;9293;49.524;10.964;2023-06-04T04:00:19;11.10;99.90
18335;DHT22;9293;49.524;10.964;2023-06-04T04:02:52;11.10;99.90
18335;DHT22;9293;49.524;10.964;2023-06-04T04:05:25;11.10;99.90
18335;DHT22;9293;49.524;10.964;2023-06-04T04:07:53;11.20;99.90
18335;DHT22;9293;49.524;10.964;2023-06-04T04:10:25;11.20;99.90
18335;DHT22;9293;49.524;10.964;2023-06-04T04:12:53;11.30;99.90
18335;DHT22;9293;49.524;10.964;2023-06-04T04:15:24;11.30;99.90
18335;DHT22;9293;49.524;10.964;2023-06-04T04:17:53;11.40;99.90
18335;DHT22;9293;49.524;10.964;2023-06-04T04:20:23;11.40;99.90
18335;DHT22;9293;49.524;10.964;2023-06-04T04:22:58;11.50;99.90
18335;DHT22;9293;49.524;10.964;2023-06-04T04:25:32;11.50;99.90
18335;DHT22;9293;49.524;10.964;2023-06-04T04:28:03;11.60;99.90
18335;DHT22;9293;49.524;10.964;2023-06-04T04:30:36;11.60;99.90
18335;DHT22;9293;49.524;10.964;2023-06-04T04:33:06;11.70;99.90
18335;DHT22;9293;49.524;10.964;2023-06-04T04:35:42;11.80;99.90
18335;DHT22;9293;49.524;10.964;2023-06-04T04:38:15;11.90;99.90
18335;DHT22;9293;49.524;10.964;2023-06-04T04:40:51;11.90;99.90
18335;DHT22;9293;49.524;10.964;2023-06-04T04:43:29;12.00;99.90
18335;DHT22;9293;49.524;10.964;2023-06-04T04:46:03;12.10;99.90
18335;DHT22;9293;49.524;10.964;2023-06-04T04:48:31;12.20;99.90
18335;DHT22;9293;49.524;10.964;2023-06-04T04:51:00;12.30;99.90
18335;DHT22;9293;49.524;10.964;2023-06-04T04:53:28;12.40;99.90
18335;DHT22;9293;49.524;10.964;2023-06-04T04:56:01;12.50;99.90
18335;DHT22;9293;49.524;10.964;2023-06-04T04:58:36;12.60;99.90
18335;DHT22;9293;49.524;10.964;2023-06-04T05:01:04;12.60;99.90
18335;DHT22;9293;49.524;10.964;2023-06-04T05:03:33;12.70;99.90
18335;DHT22;9293;49.524;10.964;2023-06-04T05:06:01;12.80;99.90
18335;DHT22;9293;49.524;10.964;2023-06-04T05:08:29;12.90;99.90
18335;DHT22;9293;49.524;10.964;2023-06-04T05:11:01;12.90;99.90
18335;DHT22;9293;49.524;10.964;2023-06-04T05:13:29;13.00;99.90
18335;DHT22;9293;49.524;10.964;2023-06-04T05:16:02;13.10;99.90
18335;DHT22;9293;49.524;10.964;2023-06-04T05:18:37;13.20;99.90
18335;DHT22;9293;49.524;10.964;2023-06-04T05:21:11;13.30;99.90
18335;DHT22;9293;49.524;10.964;2023-06-04T05:23:46;13.30;99.90
18335;DHT22;9293;49.524;10.964;2023-06-04T05:26:19;13.50;99.90
18335;DHT22;9293;49.524;10.964;2023-06-04T05:28:52;13.50;99.90
18335;DHT22;9293;49.524;10.964;2023-06-04T05:31:25;13.60;99.90
18335;DHT22;9293;49.524;10.964;2023-06-04T05:33:58;13.80;99.90
18335;DHT22;9293;49.524;10.964;2023-06-04T05:36:30;13.90;99.90
18335;DHT22;9293;49.524;10.964;2023-06-04T05:39:04;13.90;99.90
18335;DHT22;9293;49.524;10.964;2023-06-04T05:41:41;14.00;99.90
18335;DHT22;9293;49.524;10.964;2023-06-04T05:44:10;14.10;99.90
18335;DHT22;9293;49.524;10.964;2023-06-04T05:46:38;14.20;99.90
18335;DHT22;9293;49.524;10.964;2023-06-04T05:49:09;14.30;99.90
18335;DHT22;9293;49.524;10.964;2023-06-04T05:51:37;14.50;99.90
18335;DHT22;9293;49.524;10.964;2023-06-04T05:54:05;14.60;99.90
18335;DHT22;9293;49.524;10.964;2023-06-04T05:56:37;14.80;99.90
18335;DHT22;9293;49.524;10.964;2023-06-04T05:59:05;14.90;99.90
18335;DHT22;9293;49.524;10.964;2023-06-04T06:01:34;14.90;99.90
18335;DHT22;9293;49.524;10.964;2023-06-04T06:04:02;15.00;99.90
18335;DHT22;9293;49.524;10.964;2023-06-04T06:06:31;15.20;99.90
18335;DHT22;9293;49.524;10.964;2023-06-04T06:09:00;15.30;99.90
18335;DHT22;9293;49.524;10.964;2023-06-04T06:11:29;15.50;99.80
18335;DHT22;9293;49.524;10.964;2023-06-04T06:13:58;15.60;98.90
18335;DHT22;9293;49.524;10.964;2023-06-04T06:16:27;15.80;97.40
18335;DHT22;9293;49.524;10.964;2023-06-04T06:18:55;15.90;97.00
18335;DHT22;9293;49.524;10.964;2023-06-04T06:21:24;16.00;97.20
18335;DHT22;9293;49.524;10.964;2023-06-04T06:23:54;16.10;97.30
18335;DHT22;9293;49.524;10.964;2023-06-04T06:26:22;16.30;97.00
18335;DHT22;9293;49.524;10.964;2023-06-04T06:28:56;16.50;96.80
18335;DHT22;9293;49.524;10.964;2023-06-04T06:31:24;16.80;96.40
18335;DHT22;9293;49.524;10.964;2023-06-04T06:33:54;16.70;96.40
18335;DHT22;9293;49.524;10.964;2023-06-04T06:36:22;16.80;96.50
18335;DHT22;9293;49.524;10.964;2023-06-04T06:38:50;17.10;96.50
18335;DHT22;9293;49.524;10.964;2023-06-04T06:41:21;17.40;95.90
18335;DHT22;9293;49.524;10.964;2023-06-04T06:43:53;17.70;96.10
18335;DHT22;9293;49.524;10.964;2023-06-04T06:46:27;17.90;95.70
18335;DHT22;9293;49.524;10.964;2023-06-04T06:48:58;17.70;95.80
18335;DHT22;9293;49.524;10.964;2023-06-04T06:51:26;17.80;95.60
18335;DHT22;9293;49.524;10.964;2023-06-04T06:53:54;18.10;95.70
18335;DHT22;9293;49.524;10.964;2023-06-04T06:56:26;18.30;95.40
18335;DHT22;9293;49.524;10.964;2023-06-04T06:58:54;18.20;95.80
18335;DHT22;9293;49.524;10.964;2023-06-04T07:01:22;18.40;95.40
18335;DHT22;9293;49.524;10.964;2023-06-04T07:03:50;18.60;95.30
18335;DHT22;9293;49.524;10.964;2023-06-04T07:06:19;19.00;95.00
18335;DHT22;9293;49.524;10.964;2023-06-04T07:08:47;19.30;94.40
18335;DHT22;9293;49.524;10.964;2023-06-04T07:11:16;19.50;93.90
18335;DHT22;9293;49.524;10.964;2023-06-04T07:13:45;19.40;95.00
18335;DHT22;9293;49.524;10.964;2023-06-04T07:16:13;19.90;94.70
18335;DHT22;9293;49.524;10.964;2023-06-04T07:18:41;20.10;93.70
18335;DHT22;9293;49.524;10.964;2023-06-04T07:21:12;20.30;94.10
18335;DHT22;9293;49.524;10.964;2023-06-04T07:23:40;20.50;93.80
18335;DHT22;9293;49.524;10.964;2023-06-04T07:26:08;20.70;92.80
18335;DHT22;9293;49.524;10.964;2023-06-04T07:28:37;20.80;93.90
18335;DHT22;9293;49.524;10.964;2023-06-04T07:31:05;20.50;93.80
18335;DHT22;9293;49.524;10.964;2023-06-04T07:33:33;20.60;93.50
18335;DHT22;9293;49.524;10.964;2023-06-04T07:36:02;20.70;93.90
18335;DHT22;9293;49.524;10.964;2023-06-04T07:38:30;20.90;93.40
18335;DHT22;9293;49.524;10.964;2023-06-04T07:40:59;21.10;93.20
18335;DHT22;9293;49.524;10.964;2023-06-04T07:43:27;21.40;92.20
18335;DHT22;9293;49.524;10.964;2023-06-04T07:45:55;21.40;91.90
18335;DHT22;9293;49.524;10.964;2023-06-04T07:48:24;21.40;92.10
18335;DHT22;9293;49.524;10.964;2023-06-04T07:51:02;21.50;92.90
18335;DHT22;9293;49.524;10.964;2023-06-04T07:53:30;21.80;92.30
18335;DHT22;9293;49.524;10.964;2023-06-04T07:55:59;21.90;91.80
18335;DHT22;9293;49.524;10.964;2023-06-04T07:58:28;22.00;92.40
18335;DHT22;9293;49.524;10.964;2023-06-04T08:00:56;22.20;92.10
18335;DHT22;9293;49.524;10.964;2023-06-04T08:03:24;22.40;91.60
18335;DHT22;9293;49.524;10.964;2023-06-04T08:05:53;22.60;91.00
18335;DHT22;9293;49.524;10.964;2023-06-04T08:08:24;22.70;91.30
18335;DHT22;9293;49.524;10.964;2023-06-04T08:10:55;22.90;91.00
18335;DHT22;9293;49.524;10.964;2023-06-04T08:13:23;22.50;91.10
18335;DHT22;9293;49.524;10.964;2023-06-04T08:15:51;22.20;90.90
18335;DHT22;9293;49.524;10.964;2023-06-04T08:18:20;22.40;90.90
18335;DHT22;9293;49.524;10.964;2023-06-04T08:21:13;22.70;90.50
18335;DHT22;9293;49.524;10.964;2023-06-04T08:23:46;23.00;90.60
18335;DHT22;9293;49.524;10.964;2023-06-04T08:26:15;23.00;88.90
18335;DHT22;9293;49.524;10.964;2023-06-04T08:28:53;22.90;89.60
18335;DHT22;9293;49.524;10.964;2023-06-04T08:31:25;23.30;90.20
18335;DHT22;9293;49.524;10.964;2023-06-04T08:33:54;23.60;88.50
18335;DHT22;9293;49.524;10.964;2023-06-04T08:36:22;23.90;88.40
18335;DHT22;9293;49.524;10.964;2023-06-04T08:38:50;23.90;86.90
18335;DHT22;9293;49.524;10.964;2023-06-04T08:44:05;24.00;88.00
18335;DHT22;9293;49.524;10.964;2023-06-04T08:46:38;24.20;88.90
18335;DHT22;9293;49.524;10.964;2023-06-04T08:49:08;24.70;85.50
18335;DHT22;9293;49.524;10.964;2023-06-04T08:51:37;24.20;84.70
18335;DHT22;9293;49.524;10.964;2023-06-04T08:54:06;23.70;85.40
18335;DHT22;9293;49.524;10.964;2023-06-04T08:56:37;23.70;85.50
18335;DHT22;9293;49.524;10.964;2023-06-04T08:59:06;23.90;83.00
18335;DHT22;9293;49.524;10.964;2023-06-04T09:01:36;23.40;84.70
18335;DHT22;9293;49.524;10.964;2023-06-04T09:04:10;23.50;85.50
18335;DHT22;9293;49.524;10.964;2023-06-04T09:06:42;24.00;83.30
18335;DHT22;9293;49.524;10.964;2023-06-04T09:09:11;24.50;85.10
18335;DHT22;9293;49.524;10.964;2023-06-04T09:11:52;25.20;84.50
18335;DHT22;9293;49.524;10.964;2023-06-04T09:14:23;25.20;82.50
18335;DHT22;9293;49.524;10.964;2023-06-04T09:16:53;25.40;81.60
18335;DHT22;9293;49.524;10.964;2023-06-04T09:19:23;25.60;81.60
18335;DHT22;9293;49.524;10.964;2023-06-04T09:21:58;25.50;79.10
18335;DHT22;9293;49.524;10.964;2023-06-04T09:24:43;25.40;81.20
18335;DHT22;9293;49.524;10.964;2023-06-04T09:27:17;25.60;80.10
18335;DHT22;9293;49.524;10.964;2023-06-04T09:29:53;25.80;76.80
18335;DHT22;9293;49.524;10.964;2023-06-04T09:32:26;25.50;78.40
18335;DHT22;9293;49.524;10.964;2023-06-04T09:35:12;25.60;79.50
18335;DHT22;9293;49.524;10.964;2023-06-04T09:37:55;25.40;78.30
18335;DHT22;9293;49.524;10.964;2023-06-04T09:40:36;25.50;78.80
18335;DHT22;9293;49.524;10.964;2023-06-04T09:43:09;25.90;79.20
18335;DHT22;9293;49.524;10.964;2023-06-04T09:45:38;26.10;78.00
18335;DHT22;9293;49.524;10.964;2023-06-04T09:48:07;26.00;77.50
18335;DHT22;9293;49.524;10.964;2023-06-04T09:50:37;25.60;77.20
18335;DHT22;9293;49.524;10.964;2023-06-04T09:53:21;25.50;77.80
18335;DHT22;9293;49.524;10.964;2023-06-04T09:56:00;25.40;75.20
18335;DHT22;9293;49.524;10.964;2023-06-04T09:58:30;25.60;77.70
18335;DHT22;9293;49.524;10.964;2023-06-04T10:01:00;25.80;76.90
18335;DHT22;9293;49.524;10.964;2023-06-04T10:03:35;25.90;75.80
18335;DHT22;9293;49.524;10.964;2023-06-04T10:06:05;26.30;76.50
18335;DHT22;9293;49.524;10.964;2023-06-04T10:08:34;26.30;75.90
18335;DHT22;9293;49.524;10.964;2023-06-04T10:11:04;26.30;75.20
18335;DHT22;9293;49.524;10.964;2023-06-04T10:14:00;26.40;74.10
18335;DHT22;9293;49.524;10.964;2023-06-04T10:16:33;26.00;75.00
18335;DHT22;9293;49.524;10.964;2023-06-04T10:19:07;25.90;74.70
18335;DHT22;9293;49.524;10.964;2023-06-04T10:21:40;25.80;75.30
18335;DHT22;9293;49.524;10.964;2023-06-04T10:24:23;25.60;74.60
18335;DHT22;9293;49.524;10.964;2023-06-04T10:26:54;25.50;73.80
18335;DHT22;9293;49.524;10.964;2023-06-04T10:29:30;25.50;76.40
18335;DHT22;9293;49.524;10.964;2023-06-04T10:32:00;25.70;74.30
18335;DHT22;9293;49.524;10.964;2023-06-04T10:34:29;25.80;74.50
18335;DHT22;9293;49.524;10.964;2023-06-04T10:36:58;26.20;74.70
18335;DHT22;9293;49.524;10.964;2023-06-04T10:39:31;26.50;75.30
18335;DHT22;9293;49.524;10.964;2023-06-04T10:42:05;26.50;72.90
18335;DHT22;9293;49.524;10.964;2023-06-04T10:44:45;26.50;73.50
18335;DHT22;9293;49.524;10.964;2023-06-04T10:47:25;26.20;72.80
18335;DHT22;9293;49.524;10.964;2023-06-04T10:50:07;26.10;75.00
18335;DHT22;9293;49.524;10.964;2023-06-04T10:52:36;26.10;72.60
18335;DHT22;9293;49.524;10.964;2023-06-04T10:55:08;26.10;73.20
18335;DHT22;9293;49.524;10.964;2023-06-04T10:57:37;26.20;71.20
18335;DHT22;9293;49.524;10.964;2023-06-04T11:00:06;26.20;72.80
18335;DHT22;9293;49.524;10.964;2023-06-04T11:02:52;26.50;71.80
18335;DHT22;9293;49.524;10.964;2023-06-04T11:05:22;26.60;72.50
18335;DHT22;9293;49.524;10.964;2023-06-04T11:07:50;26.50;72.80
18335;DHT22;9293;49.524;10.964;2023-06-04T11:10:37;26.50;71.70
18335;DHT22;9293;49.524;10.964;2023-06-04T11:13:06;26.60;72.70
18335;DHT22;9293;49.524;10.964;2023-06-04T11:15:42;26.40;72.30
18335;DHT22;9293;49.524;10.964;2023-06-04T11:18:21;26.50;73.10
18335;DHT22;9293;49.524;10.964;2023-06-04T11:20:59;26.60;69.40
18335;DHT22;9293;49.524;10.964;2023-06-04T11:23:28;26.70;69.20
18335;DHT22;9293;49.524;10.964;2023-06-04T11:25:56;26.70;69.90
18335;DHT22;9293;49.524;10.964;2023-06-04T11:28:27;26.70;69.60
18335;DHT22;9293;49.524;10.964;2023-06-04T11:30:59;26.80;68.70
18335;DHT22;9293;49.524;10.964;2023-06-04T11:33:42;26.60;70.40
18335;DHT22;9293;49.524;10.964;2023-06-04T11:36:28;26.70;70.80
18335;DHT22;9293;49.524;10.964;2023-06-04T11:38:59;27.00;70.20
18335;DHT22;9293;49.524;10.964;2023-06-04T11:41:30;27.20;69.60
18335;DHT22;9293;49.524;10.964;2023-06-04T11:44:03;27.10;68.50
18335;DHT22;9293;49.524;10.964;2023-06-04T11:46:40;27.10;69.20
18335;DHT22;9293;49.524;10.964;2023-06-04T11:49:13;27.00;69.60
18335;DHT22;9293;49.524;10.964;2023-06-04T11:51:51;27.10;70.50
18335;DHT22;9293;49.524;10.964;2023-06-04T11:54:22;27.30;69.60
18335;DHT22;9293;49.524;10.964;2023-06-04T11:56:51;27.50;71.40
18335;DHT22;9293;49.524;10.964;2023-06-04T11:59:20;27.60;66.70
18335;DHT22;9293;49.524;10.964;2023-06-04T12:01:48;27.30;67.90
18335;DHT22;9293;49.524;10.964;2023-06-04T12:04:19;27.40;67.50
18335;DHT22;9293;49.524;10.964;2023-06-04T12:07:10;27.20;69.30
18335;DHT22;9293;49.524;10.964;2023-06-04T12:09:42;27.20;68.60
18335;DHT22;9293;49.524;10.964;2023-06-04T12:12:11;27.30;69.00
18335;DHT22;9293;49.524;10.964;2023-06-04T12:14:40;27.50;66.20
18335;DHT22;9293;49.524;10.964;2023-06-04T12:17:14;27.40;67.10
18335;DHT22;9293;49.524;10.964;2023-06-04T12:19:50;27.40;68.50
18335;DHT22;9293;49.524;10.964;2023-06-04T12:22:19;27.50;66.10
18335;DHT22;9293;49.524;10.964;2023-06-04T12:24:52;27.40;65.80
18335;DHT22;9293;49.524;10.964;2023-06-04T12:27:23;27.10;67.90
18335;DHT22;9293;49.524;10.964;2023-06-04T12:29:57;27.20;66.90
18335;DHT22;9293;49.524;10.964;2023-06-04T12:32:27;27.20;67.30
18335;DHT22;9293;49.524;10.964;2023-06-04T12:34:56;27.20;66.90
18335;DHT22;9293;49.524;10.964;2023-06-04T12:37:24;27.10;66.70
18335;DHT22;9293;49.524;10.964;2023-06-04T12:39:59;27.10;62.50
18335;DHT22;9293;49.524;10.964;2023-06-04T12:42:28;26.90;64.70
18335;DHT22;9293;49.524;10.964;2023-06-04T12:45:00;27.10;67.00
18335;DHT22;9293;49.524;10.964;2023-06-04T12:47:30;27.20;65.30
18335;DHT22;9293;49.524;10.964;2023-06-04T12:50:00;27.10;65.90
18335;DHT22;9293;49.524;10.964;2023-06-04T12:52:29;26.60;65.00
18335;DHT22;9293;49.524;10.964;2023-06-04T12:54:58;26.50;65.50
18335;DHT22;9293;49.524;10.964;2023-06-04T12:57:26;26.60;67.30
18335;DHT22;9293;49.524;10.964;2023-06-04T12:59:55;27.00;67.10
18335;DHT22;9293;49.524;10.964;2023-06-04T13:02:25;27.20;67.80
18335;DHT22;9293;49.524;10.964;2023-06-04T13:04:53;27.40;64.70
18335;DHT22;9293;49.524;10.964;2023-06-04T13:07:25;27.30;64.20
18335;DHT22;9293;49.524;10.964;2023-06-04T13:09:54;27.20;63.40
18335;DHT22;9293;49.524;10.964;2023-06-04T13:12:22;27.30;65.50
18335;DHT22;9293;49.524;10.964;2023-06-04T13:14:51;27.40;64.80
18335;DHT22;9293;49.524;10.964;2023-06-04T13:17:25;27.00;66.70
18335;DHT22;9293;49.524;10.964;2023-06-04T13:19:54;27.20;68.10
18335;DHT22;9293;49.524;10.964;2023-06-04T13:22:23;27.50;65.10
18335;DHT22;9293;49.524;10.964;2023-06-04T13:24:52;27.60;66.60
18335;DHT22;9293;49.524;10.964;2023-06-04T13:27:22;27.60;65.90
18335;DHT22;9293;49.524;10.964;2023-06-04T13:29:51;27.90;65.90
18335;DHT22;9293;49.524;10.964;2023-06-04T13:32:19;27.80;62.00
18335;DHT22;9293;49.524;10.964;2023-06-04T13:34:48;27.60;65.00
18335;DHT22;9293;49.524;10.964;2023-06-04T13:37:18;27.60;63.60
18335;DHT22;9293;49.524;10.964;2023-06-04T13:39:47;27.50;64.80
18335;DHT22;9293;49.524;10.964;2023-06-04T13:42:17;27.70;63.90
18335;DHT22;9293;49.524;10.964;2023-06-04T13:44:46;27.70;62.80
18335;DHT22;9293;49.524;10.964;2023-06-04T13:47:15;27.60;65.20
18335;DHT22;9293;49.524;10.964;2023-06-04T13:49:46;27.30;62.70
18335;DHT22;9293;49.524;10.964;2023-06-04T13:52:20;27.20;62.80
18335;DHT22;9293;49.524;10.964;2023-06-04T13:55:02;27.40;64.60
18335;DHT22;9293;49.524;10.964;2023-06-04T13:57:41;27.60;62.10
18335;DHT22;9293;49.524;10.964;2023-06-04T14:01:02;27.90;62.90
18335;DHT22;9293;49.524;10.964;2023-06-04T14:09:18;27.60;63.10
18335;DHT22;9293;49.524;10.964;2023-06-04T14:16:59;27.40;63.00
18335;DHT22;9293;49.524;10.964;2023-06-04T14:21:06;27.60;64.80
18335;DHT22;9293;49.524;10.964;2023-06-04T14:23:51;27.60;64.00
18335;DHT22;9293;49.524;10.964;2023-06-04T14:27:13;27.50;66.20
18335;DHT22;9293;49.524;10.964;2023-06-04T14:30:17;27.30;66.50
18335;DHT22;9293;49.524;10.964;2023-06-04T14:33:42;27.10;65.60
18335;DHT22;9293;49.524;10.964;2023-06-04T14:36:34;27.20;66.60
18335;DHT22;9293;49.524;10.964;2023-06-04T14:39:05;27.30;66.00
18335;DHT22;9293;49.524;10.964;2023-06-04T14:41:39;27.60;67.30
18335;DHT22;9293;49.524;10.964;2023-06-04T14:44:29;27.60;65.30
18335;DHT22;9293;49.524;10.964;2023-06-04T14:47:14;27.30;64.50
18335;DHT22;9293;49.524;10.964;2023-06-04T14:50:52;27.20;65.40
18335;DHT22;9293;49.524;10.964;2023-06-04T14:53:45;27.50;64.30
18335;DHT22;9293;49.524;10.964;2023-06-04T14:57:05;27.40;66.30
18335;DHT22;9293;49.524;10.964;2023-06-04T14:59:56;27.50;67.90
18335;DHT22;9293;49.524;10.964;2023-06-04T15:07:48;27.60;64.70
18335;DHT22;9293;49.524;10.964;2023-06-04T15:19:32;27.60;64.30
18335;DHT22;9293;49.524;10.964;2023-06-04T15:22:06;27.30;64.50
18335;DHT22;9293;49.524;10.964;2023-06-04T15:24:53;27.40;65.80
18335;DHT22;9293;49.524;10.964;2023-06-04T15:31:29;27.60;66.60
18335;DHT22;9293;49.524;10.964;2023-06-04T15:33:57;27.90;65.40
18335;DHT22;9293;49.524;10.964;2023-06-04T15:36:25;27.80;65.30
18335;DHT22;9293;49.524;10.964;2023-06-04T15:38:53;27.90;64.30
18335;DHT22;9293;49.524;10.964;2023-06-04T15:41:22;28.00;65.30
18335;DHT22;9293;49.524;10.964;2023-06-04T15:43:51;27.90;64.70
18335;DHT22;9293;49.524;10.964;2023-06-04T15:46:22;28.00;65.40
18335;DHT22;9293;49.524;10.964;2023-06-04T15:48:52;28.10;66.30
18335;DHT22;9293;49.524;10.964;2023-06-04T15:51:20;28.10;63.90
18335;DHT22;9293;49.524;10.964;2023-06-04T15:53:48;27.80;65.60
18335;DHT22;9293;49.524;10.964;2023-06-04T15:56:19;27.60;63.40
18335;DHT22;9293;49.524;10.964;2023-06-04T15:58:49;27.10;64.00
18335;DHT22;9293;49.524;10.964;2023-06-04T16:01:18;26.90;65.80
18335;DHT22;9293;49.524;10.964;2023-06-04T16:03:51;27.10;66.20
18335;DHT22;9293;49.524;10.964;2023-06-04T16:06:22;27.00;66.20
18335;DHT22;9293;49.524;10.964;2023-06-04T16:08:51;26.90;66.70
18335;DHT22;9293;49.524;10.964;2023-06-04T16:11:36;26.70;66.90
18335;DHT22;9293;49.524;10.964;2023-06-04T16:14:07;26.50;66.00
18335;DHT22;9293;49.524;10.964;2023-06-04T16:16:38;26.40;66.50
18335;DHT22;9293;49.524;10.964;2023-06-04T16:19:06;26.10;66.30
18335;DHT22;9293;49.524;10.964;2023-06-04T16:21:35;26.00;67.20
18335;DHT22;9293;49.524;10.964;2023-06-04T16:24:03;25.90;66.60
18335;DHT22;9293;49.524;10.964;2023-06-04T16:26:33;26.00;66.70
18335;DHT22;9293;49.524;10.964;2023-06-04T16:29:37;26.10;66.80
18335;DHT22;9293;49.524;10.964;2023-06-04T16:32:06;26.00;67.70
18335;DHT22;9293;49.524;10.964;2023-06-04T16:34:35;25.90;67.30
18335;DHT22;9293;49.524;10.964;2023-06-04T16:37:29;25.70;67.00
18335;DHT22;9293;49.524;10.964;2023-06-04T16:40:31;25.50;67.30